Time;durP1;ratioP1;P1;durP2;ratioP2;P2;SDS_P1;SDS_P2;PMS_P1;PMS_P2;Temp;Humidity;BMP_temperature;BMP_pressure;BME280_temperature;BME280_humidity;BME280_pressure;Samples;Min_cycle;Max_cycle;Signal;HPM_P1;HPM_P2
2021/03/23 00:00:41;;;;;;;16.40;8.20;;;;;;;7.29;60.62;102703.09;5059994;28;20032;-79
2021/03/23 00:05:54;;;;;;;20.83;8.00;;;;;;;7.43;60.57;102706.94;5091366;27;20990;-80
2021/03/23 00:11:10;;;;;;;14.20;8.10;;;;;;;7.70;61.01;102704.88;5070859;28;20456;-82
2021/03/23 00:13:40;;;;;;;15.50;8.60;;;;;;;7.76;61.20;102697.09;5028340;28;20384;-79
2021/03/23 00:16:07;;;;;;;16.48;9.10;;;;;;;7.86;60.70;102698.19;5020294;28;20029;-79
2021/03/23 00:18:35;;;;;;;15.57;7.40;;;;;;;7.93;60.73;102702.72;5017619;28;20025;-81
2021/03/23 00:21:02;;;;;;;19.88;9.02;;;;;;;8.03;60.69;102703.81;5017771;28;20026;-79
2021/03/23 00:23:28;;;;;;;18.17;8.68;;;;;;;8.10;60.44;102698.69;5017499;28;20076;-79
2021/03/23 00:25:55;;;;;;;14.15;8.35;;;;;;;8.18;60.81;102698.84;5019626;28;20097;-81
2021/03/23 00:28:24;;;;;;;16.67;7.65;;;;;;;8.27;60.78;102703.41;5023561;28;20018;-80
2021/03/23 00:30:53;;;;;;;15.82;7.97;;;;;;;8.37;60.45;102707.13;5013368;28;20034;-79
2021/03/23 00:33:20;;;;;;;17.75;8.40;;;;;;;8.41;60.72;102695.75;5025246;28;20034;-80
2021/03/23 00:35:49;;;;;;;22.50;8.98;;;;;;;8.48;60.31;102696.81;5019464;28;20115;-80
2021/03/23 00:38:15;;;;;;;15.98;8.23;;;;;;;8.54;60.18;102694.28;5017714;28;20030;-80
2021/03/23 00:40:42;;;;;;;15.30;7.75;;;;;;;8.60;60.27;102697.03;5018320;28;20025;-80
2021/03/23 00:43:10;;;;;;;13.35;8.02;;;;;;;8.68;60.69;102695.38;5020732;28;20437;-79
2021/03/23 00:45:39;;;;;;;19.63;8.27;;;;;;;8.71;60.79;102695.47;5017580;28;20021;-79
2021/03/23 00:48:07;;;;;;;15.90;8.27;;;;;;;8.74;60.54;102694.63;5018436;28;20056;-80
2021/03/23 00:50:34;;;;;;;13.77;7.32;;;;;;;8.78;60.02;102690.28;5024799;28;20473;-80
2021/03/23 00:53:01;;;;;;;19.52;7.78;;;;;;;8.81;60.09;102695.59;5013212;28;20049;-80
2021/03/23 00:55:27;;;;;;;19.85;8.18;;;;;;;8.85;60.03;102693.06;5023856;28;20022;-80
2021/03/23 00:57:54;;;;;;;15.98;8.15;;;;;;;8.90;60.02;102690.50;5019425;28;20057;-80
2021/03/23 01:00:21;;;;;;;16.42;9.00;;;;;;;8.93;60.07;102695.81;5016505;28;20100;-79
2021/03/23 01:02:48;;;;;;;14.30;7.78;;;;;;;8.98;60.28;102683.56;5012990;28;20041;-81
2021/03/23 01:05:19;;;;;;;17.58;7.90;;;;;;;9.06;59.52;102681.94;5024911;28;20025;-79
2021/03/23 01:07:46;;;;;;;17.67;8.30;;;;;;;9.06;60.15;102687.22;5020650;28;20033;-80
2021/03/23 01:10:17;;;;;;;15.23;7.57;;;;;;;9.14;59.89;102678.53;5022117;28;20037;-80
2021/03/23 01:12:44;;;;;;;13.02;7.45;;;;;;;9.14;59.89;102679.41;5012732;28;20034;-80
2021/03/23 01:15:14;;;;;;;14.15;7.95;;;;;;;9.16;59.52;102669.75;5025825;28;20022;-79
2021/03/23 01:17:41;;;;;;;12.68;7.00;;;;;;;9.19;60.01;102672.44;5017317;28;20381;-80
2021/03/23 01:20:10;;;;;;;18.98;8.10;;;;;;;9.23;59.74;102660.16;5017593;28;20030;-80
2021/03/23 01:22:37;;;;;;;17.90;9.38;;;;;;;9.23;59.56;102668.97;5008247;28;20057;-80
2021/03/23 01:25:05;;;;;;;18.25;7.97;;;;;;;9.24;59.48;102664.56;5000083;28;20037;-81
2021/03/23 01:27:32;;;;;;;16.17;7.47;;;;;;;9.24;59.54;102669.88;5008801;28;20026;-80
2021/03/23 01:29:59;;;;;;;14.15;8.13;;;;;;;9.27;59.63;102669.00;5006930;28;20033;-82
2021/03/23 01:32:26;;;;;;;13.15;8.40;;;;;;;9.27;59.90;102666.38;5004527;28;20030;-80
2021/03/23 01:34:52;;;;;;;15.15;8.93;;;;;;;9.24;59.51;102669.88;5011970;28;20018;-80
2021/03/23 01:37:19;;;;;;;17.60;8.98;;;;;;;9.26;59.40;102665.50;5007368;28;20026;-80
2021/03/23 01:39:45;;;;;;;13.85;8.48;;;;;;;9.28;59.32;102662.88;5007077;28;20114;-79
2021/03/23 01:42:18;;;;;;;17.33;9.50;;;;;;;9.31;59.58;102662.91;5008192;28;20068;-80
2021/03/23 01:44:46;;;;;;;;;;;;;;;9.45;59.00;102656.06;5000000;28;20043;-80
2021/03/23 01:47:13;;;;;;;24.15;10.35;;;;;;;9.27;59.21;102648.75;5011371;28;20592;-80
2021/03/23 01:49:45;;;;;;;20.95;10.23;;;;;;;9.33;59.57;102653.22;5003987;28;20026;-79
2021/03/23 01:52:18;;;;;;;14.63;8.38;;;;;;;9.32;59.46;102649.72;5005365;28;20569;-79
2021/03/23 01:54:51;;;;;;;21.38;10.27;;;;;;;9.31;59.93;102640.00;5004153;28;20053;-79
2021/03/23 01:57:18;;;;;;;21.42;10.35;;;;;;;9.25;59.56;102639.91;5004123;28;20034;-81
2021/03/23 01:59:51;;;;;;;19.08;10.65;;;;;;;9.31;59.71;102640.00;5002838;28;20053;-80
2021/03/23 02:02:21;;;;;;;20.35;10.43;;;;;;;9.25;60.05;102623.16;5005767;28;20088;-81
2021/03/23 02:04:48;;;;;;;20.88;10.60;;;;;;;9.23;60.01;102625.75;5003925;28;20358;-79
2021/03/23 02:07:14;;;;;;;21.65;12.23;;;;;;;9.19;60.11;102632.75;5001407;28;20053;-80
2021/03/23 02:09:41;;;;;;;24.83;11.98;;;;;;;9.18;60.13;102630.09;5003298;28;20080;-81
2021/03/23 02:12:11;;;;;;;23.10;13.63;;;;;;;9.20;60.25;102620.44;5001565;28;20078;-81
2021/03/23 02:14:41;;;;;;;35.15;13.98;;;;;;;9.17;59.69;102626.56;5002810;28;20026;-83
2021/03/23 02:19:58;;;;;;;27.20;13.18;;;;;;;9.06;60.53;102628.19;5090431;27;20376;-79
2021/03/23 02:22:27;;;;;;;25.33;14.38;;;;;;;9.09;59.89;102625.56;5078416;28;20033;-83
2021/03/23 02:24:54;;;;;;;28.63;13.30;;;;;;;9.06;59.94;102620.25;5069071;28;20464;-81
2021/03/23 02:27:23;;;;;;;30.90;15.05;;;;;;;8.99;60.17;102627.19;5068813;28;20423;-81
2021/03/23 02:29:53;;;;;;;31.40;14.57;;;;;;;9.03;60.70;102618.44;5070011;28;20028;-80
2021/03/23 02:32:20;;;;;;;33.42;14.20;;;;;;;8.97;60.25;102615.72;5070477;28;20039;-81
2021/03/23 02:34:47;;;;;;;30.60;14.55;;;;;;;8.95;60.15;102609.50;5070896;28;20104;-82
2021/03/23 02:37:14;;;;;;;33.70;16.33;;;;;;;8.95;60.82;102609.50;5069872;28;20067;-81
2021/03/23 02:39:41;;;;;;;27.83;15.13;;;;;;;8.88;60.47;102616.47;5069862;28;20107;-79
2021/03/23 02:42:09;;;;;;;29.60;15.00;;;;;;;8.90;60.35;102619.13;5069567;28;20066;-80
2021/03/23 02:44:43;;;;;;;29.80;15.10;;;;;;;8.96;60.12;102613.94;5070514;28;20024;-83
2021/03/23 02:47:11;;;;;;;25.55;13.70;;;;;;;8.88;60.34;102612.91;5069586;28;20024;-82
2021/03/23 02:49:37;;;;;;;32.05;13.98;;;;;;;8.83;61.02;102611.94;5069587;28;20036;-79
2021/03/23 02:52:05;;;;;;;29.55;15.48;;;;;;;8.83;60.83;102609.31;5069871;28;20044;-80
2021/03/23 02:54:32;;;;;;;29.92;15.00;;;;;;;8.84;60.96;102601.41;5070023;28;20021;-80
2021/03/23 02:56:58;;;;;;;28.52;14.43;;;;;;;8.83;60.17;102599.59;5069889;28;20056;-79
2021/03/23 02:59:25;;;;;;;29.17;15.57;;;;;;;8.82;60.61;102604.88;5069717;28;20021;-78
2021/03/23 03:02:03;;;;;;;32.13;14.85;;;;;;;8.82;60.29;102599.59;5067463;28;20032;-83
2021/03/23 03:04:32;;;;;;;27.38;15.75;;;;;;;8.77;60.34;102598.63;5072444;28;20054;-79
2021/03/23 03:07:00;;;;;;;27.02;15.07;;;;;;;8.72;60.70;102606.47;5069897;28;20035;-79
2021/03/23 03:09:31;;;;;;;32.08;16.00;;;;;;;8.74;60.48;102599.47;5071198;28;20028;-83
2021/03/23 03:11:57;;;;;;;30.38;14.75;;;;;;;8.72;60.76;102606.47;5070666;28;20073;-80
2021/03/23 03:14:24;;;;;;;31.42;15.98;;;;;;;8.72;60.51;102607.38;5067544;28;20029;-81
2021/03/23 03:16:51;;;;;;;29.10;16.35;;;;;;;8.73;60.71;102601.25;5071604;28;20071;-81
2021/03/23 03:19:18;;;;;;;32.30;17.33;;;;;;;8.76;60.74;102604.78;5071412;28;20047;-80
2021/03/23 03:21:45;;;;;;;34.85;15.35;;;;;;;8.73;60.59;102597.69;5070435;28;20063;-80
2021/03/23 03:24:11;;;;;;;31.98;16.10;;;;;;;8.73;60.98;102600.34;5071127;28;20077;-81
2021/03/23 03:26:38;;;;;;;28.02;15.52;;;;;;;8.71;60.86;102599.41;5070057;28;20088;-81
2021/03/23 03:29:05;;;;;;;33.55;16.00;;;;;;;8.71;60.43;102604.69;5070252;28;20071;-84
2021/03/23 03:31:33;;;;;;;33.65;17.42;;;;;;;8.64;60.96;102600.22;5055519;28;20029;-80
2021/03/23 03:34:02;;;;;;;34.40;18.85;;;;;;;8.63;60.71;102593.13;5055962;28;20028;-80
2021/03/23 03:36:31;;;;;;;34.45;17.33;;;;;;;8.59;61.03;102594.84;5055918;28;20116;-79
2021/03/23 03:38:57;;;;;;;37.88;18.25;;;;;;;8.47;61.38;102594.63;5057773;28;20021;-80
2021/03/23 03:41:25;;;;;;;33.70;16.48;;;;;;;8.48;61.10;102596.41;5055566;28;20136;-81
2021/03/23 03:43:52;;;;;;;40.00;19.40;;;;;;;8.41;61.13;102604.19;5055837;28;20021;-81
2021/03/23 03:46:19;;;;;;;38.15;18.63;;;;;;;8.38;61.17;102605.91;5055814;28;20029;-80
2021/03/23 03:48:45;;;;;;;35.40;18.45;;;;;;;8.29;60.70;102601.34;5056445;28;20107;-81
2021/03/23 03:51:12;;;;;;;38.38;19.08;;;;;;;8.12;61.53;102597.50;5056715;28;20105;-81
2021/03/23 03:53:38;;;;;;;37.63;20.15;;;;;;;8.17;61.27;102603.75;5053201;28;20077;-81
2021/03/23 03:56:05;;;;;;;43.38;20.88;;;;;;;8.14;61.59;102606.31;5052149;28;20028;-80
2021/03/23 03:58:32;;;;;;;45.92;21.48;;;;;;;8.05;61.50;102602.69;5049978;28;20040;-80
2021/03/23 04:00:58;;;;;;;46.47;21.92;;;;;;;8.00;61.58;102599.06;5056163;28;20028;-80
2021/03/23 04:03:28;;;;;;;45.90;21.58;;;;;;;7.93;61.74;102599.81;5056182;28;20049;-81
2021/03/23 04:05:57;;;;;;;41.08;21.35;;;;;;;7.89;62.26;102605.88;5056768;28;20040;-81
2021/03/23 04:08:27;;;;;;;45.22;20.70;;;;;;;7.84;61.79;102591.69;5055822;28;20031;-81
2021/03/23 04:10:55;;;;;;;52.40;23.77;;;;;;;7.77;61.83;102601.25;5056783;28;20047;-82
2021/03/23 04:13:22;;;;;;;46.63;22.30;;;;;;;7.74;61.83;102594.16;5052918;28;20029;-80
2021/03/23 04:15:50;;;;;;;52.72;24.25;;;;;;;7.67;62.38;102605.44;5055272;28;20033;-81
2021/03/23 04:18:20;;;;;;;50.20;24.88;;;;;;;7.55;62.86;102599.91;5055105;28;20036;-80
2021/03/23 04:20:47;;;;;;;46.70;23.75;;;;;;;7.55;62.82;102599.91;5054211;28;20044;-80
2021/03/23 04:26:13;;;;;;;48.40;24.17;;;;;;;7.55;62.66;102595.53;5110955;27;20892;-80
2021/03/23 04:28:40;;;;;;;47.45;24.08;;;;;;;7.55;62.58;102598.19;5100170;28;20029;-80
2021/03/23 04:31:33;;;;;;;51.38;24.60;;;;;;;7.55;63.08;102589.34;5102937;28;20031;-80
2021/03/23 04:33:59;;;;;;;;;;;;;;;7.83;63.06;102589.94;5082261;28;20055;-80
2021/03/23 04:36:26;;;;;;;48.70;23.45;;;;;;;7.71;62.89;102596.75;5080043;28;20015;-81
2021/03/23 04:38:52;;;;;;;50.67;25.63;;;;;;;7.74;62.68;102595.91;5081617;28;20377;-81
2021/03/23 04:41:19;;;;;;;59.58;28.13;;;;;;;7.79;63.04;102599.53;5081653;28;20035;-80
2021/03/23 04:43:48;;;;;;;52.50;25.35;;;;;;;7.88;63.62;102598.81;5080549;28;20431;-80
2021/03/23 04:46:18;;;;;;;51.92;26.40;;;;;;;7.99;62.94;102602.56;5079313;28;20056;-80
2021/03/23 04:48:45;;;;;;;52.97;25.98;;;;;;;8.09;62.63;102593.94;5082127;28;20412;-80
2021/03/23 04:51:13;;;;;;;57.05;28.15;;;;;;;8.18;62.68;102593.22;5082112;28;20081;-80
2021/03/23 04:53:41;;;;;;;52.97;26.50;;;;;;;8.23;62.71;102591.53;5082135;28;20557;-80
2021/03/23 04:56:17;;;;;;;54.60;28.17;;;;;;;8.27;63.28;102592.50;5080347;28;20507;-81
2021/03/23 04:58:43;;;;;;;56.45;28.15;;;;;;;8.37;62.97;102597.09;5077124;28;20048;-80
2021/03/23 05:01:09;;;;;;;57.42;26.35;;;;;;;8.41;62.74;102606.84;5081997;28;20033;-80
2021/03/23 05:03:36;;;;;;;48.80;26.02;;;;;;;8.46;63.26;102603.38;5075888;28;20115;-80
2021/03/23 05:06:06;;;;;;;63.47;31.25;;;;;;;8.54;62.70;102604.44;5078305;28;20028;-80
2021/03/23 05:08:33;;;;;;;65.15;31.55;;;;;;;8.54;63.79;102605.31;5079933;28;20032;-81
2021/03/23 05:11:00;;;;;;;60.92;30.90;;;;;;;8.70;63.10;102611.75;5081014;28;20090;-80
2021/03/23 05:13:26;;;;;;;72.13;31.75;;;;;;;8.66;63.39;102611.66;5080391;28;20032;-80
2021/03/23 05:15:53;;;;;;;69.13;33.63;;;;;;;8.75;63.75;102617.13;5080489;28;20033;-80
2021/03/23 05:18:19;;;;;;;66.35;31.42;;;;;;;8.84;63.67;102611.09;5078936;28;20495;-81
2021/03/23 05:20:45;;;;;;;72.03;34.03;;;;;;;8.89;63.06;102612.91;5080932;28;20376;-80
2021/03/23 05:23:13;;;;;;;60.90;31.52;;;;;;;8.97;63.28;102613.06;5081583;28;20463;-80
2021/03/23 05:25:40;;;;;;;68.90;31.45;;;;;;;9.01;63.68;102622.81;5079597;28;20495;-80
2021/03/23 05:28:07;;;;;;;67.05;31.48;;;;;;;9.03;63.68;102618.44;5080755;28;20017;-81
2021/03/23 05:30:33;;;;;;;62.17;31.42;;;;;;;9.10;62.95;102615.88;5082000;28;20042;-80
2021/03/23 05:32:59;;;;;;;64.13;31.63;;;;;;;9.01;63.31;102613.97;5081205;28;20504;-80
2021/03/23 05:35:26;;;;;;;60.63;29.92;;;;;;;9.16;63.15;102613.31;5077370;28;20039;-80
2021/03/23 05:37:52;;;;;;;65.53;31.70;;;;;;;9.10;63.13;102616.78;5066475;28;20488;-80
2021/03/23 05:40:23;;;;;;;63.95;31.60;;;;;;;9.01;63.67;102609.59;5064863;28;20075;-81
2021/03/23 05:43:02;;;;;;;61.33;32.35;;;;;;;9.17;63.91;102615.09;5067006;28;20028;-80
2021/03/23 05:45:38;;;;;;;66.22;32.75;;;;;;;9.12;64.05;102611.50;5063494;28;20509;-79
2021/03/23 05:48:27;;;;;;;68.88;34.85;;;;;;;9.24;63.57;102614.31;5063963;28;20032;-81
2021/03/23 05:51:03;;;;;;;75.75;34.63;;;;;;;9.11;63.96;102609.72;5065436;28;20430;-81
2021/03/23 05:53:38;;;;;;;76.72;35.40;;;;;;;9.17;63.88;102612.44;5065151;28;20029;-81
2021/03/23 05:56:05;;;;;;;81.68;35.95;;;;;;;9.16;63.81;102613.31;5062827;28;20094;-81
2021/03/23 05:58:36;;;;;;;80.28;35.00;;;;;;;9.28;63.57;102613.47;5062192;28;20033;-79
2021/03/23 06:01:18;;;;;;;88.57;38.40;;;;;;;9.16;64.19;102618.59;5055828;28;20115;-79
2021/03/23 06:03:52;;;;;;;87.72;36.65;;;;;;;9.33;64.39;102619.75;5060978;28;20108;-79
2021/03/23 06:09:13;;;;;;;89.88;38.78;;;;;;;9.42;64.17;102615.44;5003159;27;2238912;-78
2021/03/23 06:14:41;;;;;;;97.38;40.92;;;;;;;9.56;63.68;102624.47;5080182;28;20360;-79
2021/03/23 06:17:32;;;;;;;84.55;37.20;;;;;;;9.51;64.66;102623.50;5053180;28;20090;-80
2021/03/23 06:23:34;;;;;;;90.72;38.35;;;;;;;9.68;63.91;102631.66;5107474;27;20374;-80
2021/03/23 06:34:55;;;;;;;91.43;38.58;;;;;;;9.66;64.36;102623.69;5109482;27;20362;-81
2021/03/23 06:40:13;;;;;;;88.10;36.47;;;;;;;9.82;64.13;102630.06;5148174;27;20414;-79
2021/03/23 06:42:46;;;;;;;89.88;39.20;;;;;;;9.86;64.17;102637.16;5146836;27;20254;-81
2021/03/23 06:51:13;;;;;;;95.03;41.45;;;;;;;10.02;64.23;102627.63;5128670;27;20366;-81
2021/03/23 06:53:41;;;;;;;80.82;35.70;;;;;;;9.99;64.05;102630.28;5129608;27;20031;-80
2021/03/23 07:01:49;;;;;;;88.88;40.33;;;;;;;10.02;64.10;102635.59;5075942;27;20961;-81
2021/03/23 07:07:18;;;;;;;88.43;37.97;;;;;;;10.25;64.14;102631.41;5106992;27;20363;-82
2021/03/23 07:09:59;;;;;;;101.72;39.63;;;;;;;10.22;64.21;102636.66;5096892;28;20068;-82
2021/03/23 07:12:45;;;;;;;93.55;38.83;;;;;;;10.30;63.96;102635.88;5095882;28;20039;-82
2021/03/23 07:15:16;;;;;;;94.80;38.20;;;;;;;10.26;63.97;102639.38;5097905;28;20082;-81
2021/03/23 07:17:48;;;;;;;84.93;39.38;;;;;;;10.29;63.98;102633.22;5097710;28;20895;-83
2021/03/23 07:20:36;;;;;;;;;;;;;;;10.41;63.77;102638.66;5099316;28;20055;-81
2021/03/23 07:23:23;;;;;;;96.05;39.20;;;;;;;10.25;64.58;102637.59;5096179;28;19920;-82
2021/03/23 07:25:49;;;;;;;89.15;39.55;;;;;;;10.32;63.98;102639.44;5096514;28;20032;-82
2021/03/23 07:34:14;;;;;;;86.47;37.92;;;;;;;10.61;63.72;102648.56;5074472;27;20439;-82
2021/03/23 07:36:47;;;;;;;85.47;37.15;;;;;;;10.59;63.94;102656.50;5048347;28;20618;-80
2021/03/23 07:39:36;;;;;;;90.95;38.50;;;;;;;10.52;64.01;102662.63;5048536;28;20037;-80
2021/03/23 07:42:07;;;;;;;85.10;36.97;;;;;;;10.67;63.88;102664.53;5052266;28;20037;-80
2021/03/23 07:44:56;;;;;;;89.83;42.40;;;;;;;10.71;63.94;102665.44;5065577;28;20056;-81
2021/03/23 07:47:50;;;;;;;93.38;39.88;;;;;;;10.84;63.53;102659.34;5070007;28;20029;-81
2021/03/23 07:50:35;;;;;;;86.63;37.97;;;;;;;10.90;63.37;102667.34;5070311;28;20040;-80
2021/03/23 07:56:30;;;;;;;83.43;38.03;;;;;;;10.80;63.76;102663.78;5090323;27;20403;-81
2021/03/23 08:01:57;;;;;;;81.47;39.85;;;;;;;11.00;63.31;102676.28;5075550;27;20423;-81
2021/03/23 08:10:22;;;;;;;87.57;38.40;;;;;;;11.07;63.25;102677.22;5131236;27;20373;-80
2021/03/23 08:16:05;;;;;;;81.80;37.30;;;;;;;11.16;63.04;102675.53;5081831;27;20914;-85
2021/03/23 08:21:54;;;;;;;82.35;35.58;;;;;;;11.23;62.77;102670.28;5091133;27;20444;-81
2021/03/23 08:27:54;;;;;;;76.93;34.92;;;;;;;11.24;62.24;102672.94;5129448;27;20430;-81
2021/03/23 08:30:34;;;;;;;81.47;36.28;;;;;;;11.30;62.66;102670.31;5131300;27;20047;-80
2021/03/23 08:36:37;;;;;;;79.57;35.85;;;;;;;11.28;62.32;102671.19;5077907;28;21262;-81
2021/03/23 08:39:47;;;;;;;80.88;36.20;;;;;;;11.31;62.16;102673.84;5062427;28;20032;-81
2021/03/23 08:42:17;;;;;;;77.43;36.30;;;;;;;11.48;61.97;102679.25;5060090;28;20052;-81
2021/03/23 08:47:47;;;;;;;72.80;36.78;;;;;;;11.52;61.81;102670.41;5109776;27;20403;-81
2021/03/23 08:50:35;;;;;;;122.43;61.20;;;;;;;11.61;61.26;102670.50;5114109;27;20050;-85
2021/03/23 08:53:05;;;;;;;77.40;37.15;;;;;;;11.47;61.80;102667.72;5099754;28;20488;-82
2021/03/23 08:58:30;;;;;;;74.93;34.50;;;;;;;11.52;61.40;102667.78;5089512;28;20408;-81
2021/03/23 09:01:00;;;;;;;72.28;35.47;;;;;;;11.45;61.01;102668.59;5055034;28;20098;-83
2021/03/23 09:03:48;;;;;;;78.15;36.72;;;;;;;11.63;60.71;102671.38;5053174;28;20116;-80
2021/03/23 09:06:17;;;;;;;79.00;35.55;;;;;;;11.39;60.97;102676.53;5033517;28;20025;-80
2021/03/23 09:09:16;;;;;;;79.93;37.13;;;;;;;11.47;61.17;102677.47;5032015;28;20037;-80
2021/03/23 09:12:07;;;;;;;80.50;39.33;;;;;;;11.69;60.26;102682.88;5046372;28;20048;-79
2021/03/23 09:20:57;;;;;;;69.85;37.42;;;;;;;11.77;59.72;102683.81;5085642;27;20446;-80
2021/03/23 09:29:36;;;;;;;70.07;35.53;;;;;;;12.19;58.78;102684.03;5110911;27;20390;-81
2021/03/23 09:35:09;;;;;;;64.15;35.00;;;;;;;12.30;58.43;102683.16;5090534;28;20461;-81
2021/03/23 09:37:55;;;;;;;62.60;33.90;;;;;;;12.33;57.99;102692.91;5068076;28;20155;-83
2021/03/23 09:43:23;;;;;;;63.67;34.70;;;;;;;12.39;57.50;102686.72;5056555;28;20892;-82
2021/03/23 09:48:50;;;;;;;68.38;36.38;;;;;;;12.75;57.06;102692.97;5090896;28;20404;-83
2021/03/23 09:51:43;;;;;;;72.45;34.67;;;;;;;12.62;56.42;102690.31;5069818;28;20534;-84
2021/03/23 09:57:18;;;;;;;69.60;32.42;;;;;;;12.92;55.90;102691.22;5132089;27;777938;-82
2021/03/23 09:59:48;;;;;;;63.55;34.85;;;;;;;12.65;56.18;102685.84;5131628;27;20027;-82
2021/03/23 10:08:17;;;;;;;56.90;32.63;;;;;;;13.06;55.56;102677.88;5089066;28;20419;-82
2021/03/23 10:10:44;;;;;;;62.58;34.08;;;;;;;12.95;55.38;102677.00;5070276;28;20044;-81
2021/03/23 10:13:23;;;;;;;57.70;34.53;;;;;;;13.11;54.78;102680.56;5054989;28;20108;-82
2021/03/23 10:15:49;;;;;;;58.13;32.00;;;;;;;13.11;54.72;102684.09;5048712;28;20033;-80
2021/03/23 10:21:09;;;;;;;56.20;32.42;;;;;;;13.29;54.32;102676.09;5090451;27;20371;-84
2021/03/23 10:23:44;;;;;;;61.83;33.00;;;;;;;13.25;54.34;102667.22;5090762;28;20032;-84
2021/03/23 10:26:12;;;;;;;57.55;32.78;;;;;;;13.30;54.21;102675.19;5090322;28;20426;-84
2021/03/23 10:28:55;;;;;;;54.92;32.53;;;;;;;13.52;53.16;102668.06;5090477;28;20457;-84
2021/03/23 10:31:40;;;;;;;55.10;31.50;;;;;;;13.48;52.99;102677.81;5088637;28;20028;-84
2021/03/23 10:34:14;;;;;;;52.80;30.00;;;;;;;13.54;52.35;102667.16;5089398;28;20086;-80
2021/03/23 10:36:44;;;;;;;56.92;30.80;;;;;;;13.59;52.84;102675.13;5090015;28;20039;-84
2021/03/23 10:42:22;;;;;;;45.58;29.42;;;;;;;13.64;50.77;102677.81;5084305;28;20385;-81
2021/03/23 10:44:49;;;;;;;47.60;28.20;;;;;;;13.66;51.90;102684.03;5070677;28;20029;-81
2021/03/23 10:47:36;;;;;;;47.35;26.45;;;;;;;13.79;52.77;102672.41;5069989;28;20036;-81
2021/03/23 10:53:20;;;;;;;56.90;28.02;;;;;;;14.22;51.09;102685.53;5077193;28;20180;-80
2021/03/23 10:55:49;;;;;;;43.78;26.10;;;;;;;13.97;51.66;102690.09;5070075;28;20060;-80
2021/03/23 10:58:20;;;;;;;45.58;27.23;;;;;;;13.82;52.15;102688.38;5070210;28;20349;-81
2021/03/23 11:00:50;;;;;;;55.38;30.77;;;;;;;13.77;52.70;102695.53;5070259;28;20083;-80
2021/03/23 11:06:03;;;;;;;50.30;28.90;;;;;;;13.56;53.37;102694.69;5084761;27;20969;-78
2021/03/23 11:08:31;;;;;;;60.85;32.08;;;;;;;13.53;52.62;102689.38;5056619;28;20056;-81
2021/03/23 11:10:59;;;;;;;55.13;30.45;;;;;;;13.61;53.00;102688.44;5066214;28;20067;-81
2021/03/23 11:13:26;;;;;;;59.28;30.65;;;;;;;13.48;53.64;102691.13;5060920;28;20046;-81
2021/03/23 11:15:55;;;;;;;49.38;29.73;;;;;;;13.63;53.00;102700.00;5065378;28;20048;-81
2021/03/23 11:18:31;;;;;;;58.30;29.50;;;;;;;13.63;53.66;102687.56;5036501;28;20104;-81
2021/03/23 11:21:00;;;;;;;56.53;29.52;;;;;;;13.65;53.63;102684.91;5038562;28;20136;-81
2021/03/23 11:23:39;;;;;;;58.72;31.02;;;;;;;13.56;53.55;102692.03;5040231;28;20029;-81
2021/03/23 11:26:07;;;;;;;49.95;29.20;;;;;;;13.57;53.28;102685.81;5038485;28;20029;-81
2021/03/23 11:28:34;;;;;;;48.00;28.30;;;;;;;13.73;53.39;102677.75;5039312;28;20496;-81
2021/03/23 11:31:02;;;;;;;53.33;29.45;;;;;;;13.62;53.32;102682.22;5055846;28;20036;-82
2021/03/23 11:33:30;;;;;;;51.92;29.95;;;;;;;13.65;53.61;102679.56;5038991;28;20104;-82
2021/03/23 11:35:57;;;;;;;52.63;31.05;;;;;;;13.43;53.76;102675.19;5038970;28;20021;-82
2021/03/23 11:38:24;;;;;;;51.72;30.38;;;;;;;13.53;53.20;102673.41;5040552;28;20017;-82
2021/03/23 11:40:53;;;;;;;58.05;30.30;;;;;;;13.67;52.99;102673.34;5049228;28;20507;-82
2021/03/23 11:43:30;;;;;;;54.42;31.23;;;;;;;13.59;53.91;102670.72;5060544;28;20029;-81
2021/03/23 11:46:05;;;;;;;54.22;31.00;;;;;;;13.68;53.32;102674.22;5068300;28;20124;-82
2021/03/23 11:48:37;;;;;;;58.33;30.15;;;;;;;13.50;53.82;102670.72;5069523;28;20577;-82
2021/03/23 11:51:04;;;;;;;59.10;32.10;;;;;;;13.54;54.10;102671.63;5068829;28;20047;-82
2021/03/23 11:53:30;;;;;;;53.75;31.00;;;;;;;13.36;53.99;102673.41;5060865;28;20032;-80
2021/03/23 11:55:57;;;;;;;54.42;31.33;;;;;;;13.39;54.59;102668.09;5061847;28;20025;-81
2021/03/23 11:58:25;;;;;;;61.08;34.22;;;;;;;13.46;54.70;102665.41;5052546;28;20017;-81
2021/03/23 12:00:52;;;;;;;64.68;34.10;;;;;;;13.01;55.19;102670.78;5041569;28;20025;-81
2021/03/23 12:03:19;;;;;;;59.00;35.25;;;;;;;13.28;54.91;102672.53;5045552;28;20032;-81
2021/03/23 12:05:46;;;;;;;59.67;36.70;;;;;;;13.30;54.62;102672.53;5047655;28;20127;-81
2021/03/23 12:08:23;;;;;;;60.78;35.53;;;;;;;13.23;54.48;102661.91;5030416;28;20102;-81
2021/03/23 12:19:13;;;;;;;56.97;33.08;;;;;;;13.20;54.89;102672.53;5076354;28;20435;-81
2021/03/23 12:21:40;;;;;;;66.25;35.13;;;;;;;13.19;55.20;102676.09;5068459;28;20031;-81
2021/03/23 12:24:07;;;;;;;51.10;31.92;;;;;;;13.40;54.66;102666.34;5049903;28;20465;-81
2021/03/23 12:26:34;;;;;;;49.70;31.73;;;;;;;13.36;54.99;102675.19;5049511;28;20048;-81
2021/03/23 12:29:00;;;;;;;57.15;32.40;;;;;;;13.16;55.49;102670.78;5049688;28;20029;-81
2021/03/23 12:31:28;;;;;;;59.55;34.20;;;;;;;13.23;55.45;102668.97;5049967;28;20033;-81
2021/03/23 12:33:54;;;;;;;51.10;31.67;;;;;;;13.03;55.82;102669.03;5049603;28;20494;-83
2021/03/23 12:36:21;;;;;;;54.20;31.55;;;;;;;13.19;54.64;102673.44;5049351;28;20128;-83
2021/03/23 12:38:52;;;;;;;48.33;30.05;;;;;;;13.16;55.08;102664.56;5049888;28;20108;-83
2021/03/23 12:41:26;;;;;;;48.45;31.27;;;;;;;13.08;55.38;102662.81;5048086;28;20032;-83
2021/03/23 12:43:53;;;;;;;50.95;30.48;;;;;;;13.18;55.03;102663.66;5049558;28;20040;-83
2021/03/23 12:46:19;;;;;;;46.08;29.65;;;;;;;13.02;55.09;102657.50;5049390;28;20550;-82
2021/03/23 12:48:47;;;;;;;48.13;29.52;;;;;;;13.09;54.96;102659.25;5049897;28;20040;-84
2021/03/23 12:51:22;;;;;;;48.33;29.20;;;;;;;13.07;55.27;102642.41;5047947;28;20052;-85
2021/03/23 12:53:49;;;;;;;51.35;30.75;;;;;;;13.27;54.13;102642.38;5047606;28;20025;-85
2021/03/23 12:56:16;;;;;;;43.63;28.55;;;;;;;13.07;54.69;102638.84;5047788;28;20033;-84
2021/03/23 12:58:45;;;;;;;56.95;30.90;;;;;;;13.14;54.52;102645.94;5048287;28;20060;-86
2021/03/23 13:01:12;;;;;;;48.13;29.75;;;;;;;13.22;54.05;102638.84;5047791;28;20049;-82
2021/03/23 13:03:38;;;;;;;51.40;30.63;;;;;;;12.98;54.12;102634.44;5047107;28;20495;-85
2021/03/23 13:06:06;;;;;;;49.28;29.48;;;;;;;13.17;54.09;102622.00;5049326;28;20484;-84
2021/03/23 13:08:36;;;;;;;47.38;29.27;;;;;;;13.36;53.67;102627.28;5049845;28;20029;-84
2021/03/23 13:11:11;;;;;;;44.08;28.13;;;;;;;13.24;53.51;102618.41;5049357;28;20086;-84
2021/03/23 13:13:47;;;;;;;45.75;29.10;;;;;;;13.39;53.68;102621.94;5050304;28;20032;-83
2021/03/23 13:16:13;;;;;;;43.95;27.15;;;;;;;13.31;53.56;102610.41;5049311;28;20476;-84
2021/03/23 13:18:39;;;;;;;43.67;27.00;;;;;;;13.51;53.67;102605.06;5049616;28;20029;-84
2021/03/23 13:21:07;;;;;;;42.85;27.48;;;;;;;13.47;54.08;102600.63;5049401;28;20476;-84
2021/03/23 13:23:57;;;;;;;40.00;25.45;;;;;;;13.72;52.77;102604.94;5050344;28;20476;-84
2021/03/23 13:26:26;;;;;;;41.55;25.85;;;;;;;13.48;52.72;102597.06;5049006;28;20398;-85
2021/03/23 13:29:01;;;;;;;40.13;25.60;;;;;;;13.80;52.13;102598.72;5045390;28;20096;-85
2021/03/23 13:31:36;;;;;;;39.55;24.08;;;;;;;13.81;51.92;102593.38;5035861;28;20112;-85
2021/03/23 13:34:04;;;;;;;35.95;23.90;;;;;;;13.63;51.85;102597.00;5033563;28;20025;-82
2021/03/23 13:36:43;;;;;;;37.55;24.10;;;;;;;13.81;51.55;102585.38;5034961;28;20412;-82
2021/03/23 13:39:20;;;;;;;32.03;21.90;;;;;;;13.89;51.50;102585.31;5033710;28;20456;-81
2021/03/23 13:41:47;;;;;;;36.80;24.27;;;;;;;13.83;51.53;102583.59;5033752;28;20476;-81
2021/03/23 13:47:02;;;;;;;29.80;20.33;;;;;;;13.82;50.73;102581.81;5090342;27;20388;-80